ROC weather

Greater Rochester International Airport
Rochester, New York, United States

Public forecast

Using degrees Fahrenheit for public forecast. Weather courtesy of forecast.io.

METAR (pilot weather report)

Retrieved 2019/04/22 04:54 UTC (58 minutes ago):

KROC 220454Z 25003KT 10SM BKN026 OVC034 09/05 A3020 RMK AO2 SLP231 T00940050 401330072

TAF (pilot weather forecast)

Forecast is more than 12 hours old.

Retrieved 2019/04/21 00:22 UTC (1 day ago):

TAF KROC 212320Z 2200/2224 00000KT P6SM OVC030 FM220600 25004KT P6SM BKN020 FM220700 25004KT 3SM BR BKN020 FM221300 VRB03KT P6SM OVC015 FM222000 03005KT P6SM SCT120